Time;durP1;ratioP1;P1;durP2;ratioP2;P2;SDS_P1;SDS_P2;PMS_P1;PMS_P2;Temp;Humidity;BMP_temperature;BMP_pressure;BME280_temperature;BME280_humidity;BME280_pressure;Samples;Min_cycle;Max_cycle;Signal;HPM_P1;HPM_P2
2023/08/31 00:02:10;;;;;;;4.93;3.50;;;13.60;99.90;;;;;;5048616;28;20559;-71
2023/08/31 00:04:36;;;;;;;5.77;3.37;;;13.60;99.90;;;;;;5048197;28;20423;-71
2023/08/31 00:07:03;;;;;;;6.53;4.57;;;13.60;99.90;;;;;;5047769;28;20424;-71
2023/08/31 00:09:31;;;;;;;5.30;4.07;;;13.60;99.90;;;;;;5048408;28;20578;-71
2023/08/31 00:11:57;;;;;;;5.30;3.60;;;13.50;99.90;;;;;;5047305;28;20490;-71
2023/08/31 00:14:24;;;;;;;4.17;3.60;;;13.50;99.90;;;;;;5048427;28;20463;-71
2023/08/31 00:16:50;;;;;;;7.57;3.93;;;13.50;99.90;;;;;;5047387;28;20211;-71
2023/08/31 00:19:16;;;;;;;4.20;3.30;;;13.50;99.90;;;;;;5047123;28;20824;-71
2023/08/31 00:21:42;;;;;;;6.03;3.30;;;13.50;99.90;;;;;;5048180;28;20506;-71
2023/08/31 00:24:09;;;;;;;3.83;3.13;;;13.50;99.90;;;;;;5048500;28;20420;-71
2023/08/31 00:26:40;;;;;;;3.90;2.90;;;13.50;99.90;;;;;;5046289;28;20416;-71
2023/08/31 00:29:06;;;;;;;6.00;3.47;;;13.50;99.90;;;;;;5048170;28;20929;-71
2023/08/31 00:31:33;;;;;;;3.20;2.90;;;13.50;99.90;;;;;;5046834;28;20493;-71
2023/08/31 00:34:04;;;;;;;2.93;2.57;;;13.50;99.90;;;;;;5046947;28;20416;-71
2023/08/31 00:36:33;;;;;;;2.77;2.47;;;13.50;99.90;;;;;;5038761;28;20476;-71
2023/08/31 00:39:05;;;;;;;3.67;2.87;;;13.40;99.90;;;;;;5048158;28;20447;-71
2023/08/31 00:41:31;;;;;;;5.60;3.00;;;13.40;99.90;;;;;;5039515;28;21004;-71
2023/08/31 00:43:57;;;;;;;3.93;3.17;;;13.40;99.90;;;;;;5048166;28;20463;-71
2023/08/31 00:46:22;;;;;;;7.00;3.27;;;13.50;99.90;;;;;;5048131;28;20507;-71
2023/08/31 00:48:48;;;;;;;6.33;2.77;;;13.50;99.90;;;;;;5061898;28;20275;-71
2023/08/31 00:51:14;;;;;;;3.60;2.50;;;13.50;99.90;;;;;;5060250;28;20186;-71
2023/08/31 00:53:41;;;;;;;7.50;3.30;;;13.50;99.90;;;;;;5058301;28;20233;-71
2023/08/31 00:56:08;;;;;;;5.47;3.33;;;13.60;99.90;;;;;;5049623;28;20493;-71
2023/08/31 00:58:34;;;;;;;4.00;3.10;;;13.50;99.90;;;;;;5047913;28;20463;-71
2023/08/31 01:01:31;;;;;;;5.50;2.80;;;13.50;99.90;;;;;;5045338;28;21122;-72
2023/08/31 01:04:26;;;;;;;3.53;2.67;;;13.50;99.90;;;;;;5044449;28;20504;-71
2023/08/31 01:07:02;;;;;;;4.40;2.97;;;13.50;99.90;;;;;;5045610;28;20805;-72
2023/08/31 01:09:39;;;;;;;5.63;3.43;;;13.50;99.90;;;;;;5046266;28;20895;-71
2023/08/31 01:12:12;;;;;;;5.10;3.00;;;13.50;99.90;;;;;;5047058;28;20435;-72
2023/08/31 01:14:47;;;;;;;10.33;3.87;;;13.40;99.90;;;;;;5047010;28;20423;-71
2023/08/31 01:17:14;;;;;;;5.13;3.40;;;13.40;99.90;;;;;;5046948;28;20457;-71
2023/08/31 01:19:50;;;;;;;4.93;3.27;;;13.30;99.90;;;;;;5047303;28;20428;-71
2023/08/31 01:22:27;;;;;;;4.43;3.07;;;13.30;99.90;;;;;;5047553;28;20416;-71
2023/08/31 01:24:53;;;;;;;5.47;4.20;;;13.40;99.90;;;;;;5047390;28;20430;-71
2023/08/31 01:27:20;;;;;;;5.87;3.97;;;13.30;99.90;;;;;;5046707;28;20936;-71
2023/08/31 01:29:45;;;;;;;6.47;4.53;;;13.40;99.90;;;;;;5047328;28;20446;-71
2023/08/31 01:32:12;;;;;;;5.30;3.70;;;13.40;99.90;;;;;;5047246;28;20437;-72
2023/08/31 01:34:39;;;;;;;3.90;3.50;;;13.40;99.90;;;;;;5047363;28;20530;-72
2023/08/31 01:37:17;;;;;;;5.33;3.00;;;13.40;99.90;;;;;;5046871;28;20514;-71
2023/08/31 01:40:27;;;;;;;6.70;3.70;;;13.40;99.90;;;;;;5047152;28;20493;-71
2023/08/31 01:42:54;;;;;;;5.20;4.00;;;13.40;99.90;;;;;;5014650;28;20839;-72
2023/08/31 01:45:22;;;;;;;4.50;3.97;;;13.40;99.90;;;;;;5046747;28;20527;-71
2023/08/31 01:47:48;;;;;;;6.00;4.00;;;13.20;99.90;;;;;;5045013;28;20408;-71
2023/08/31 01:50:14;;;;;;;4.07;2.97;;;13.20;99.90;;;;;;5045428;28;20798;-72
2023/08/31 01:52:40;;;;;;;3.67;3.27;;;13.20;99.90;;;;;;5046546;28;20428;-71
2023/08/31 01:55:06;;;;;;;4.80;3.40;;;13.20;99.90;;;;;;5046408;28;20192;-72
2023/08/31 01:57:33;;;;;;;4.50;3.30;;;13.10;99.90;;;;;;5045784;28;20206;-71
2023/08/31 01:59:59;;;;;;;3.90;3.50;;;13.20;99.90;;;;;;5045749;28;20482;-71
2023/08/31 02:02:24;;;;;;;4.10;2.87;;;13.20;99.90;;;;;;5045114;28;20471;-71
2023/08/31 02:04:51;;;;;;;3.97;3.57;;;13.10;99.90;;;;;;5046037;28;20461;-71
2023/08/31 02:07:17;;;;;;;5.70;4.27;;;13.10;99.90;;;;;;5045821;28;20182;-71
2023/08/31 02:09:43;;;;;;;4.63;4.03;;;13.00;99.90;;;;;;5046225;28;20961;-71
2023/08/31 02:12:11;;;;;;;5.90;3.77;;;13.00;99.90;;;;;;5046305;28;20506;-71
2023/08/31 02:14:38;;;;;;;6.83;4.17;;;13.00;99.90;;;;;;5045882;28;20657;-72
2023/08/31 02:17:04;;;;;;;5.60;3.67;;;13.00;99.90;;;;;;5044112;28;20471;-71
2023/08/31 02:19:30;;;;;;;6.27;3.67;;;13.00;99.90;;;;;;5046235;28;20432;-71
2023/08/31 02:21:55;;;;;;;5.63;4.20;;;13.00;99.90;;;;;;5045552;28;20189;-72
2023/08/31 02:24:21;;;;;;;4.00;3.70;;;13.00;99.90;;;;;;5049857;28;20180;-72
2023/08/31 02:26:49;;;;;;;5.03;4.27;;;13.00;99.90;;;;;;5049165;28;20178;-71
2023/08/31 02:29:14;;;;;;;4.03;3.67;;;13.00;99.90;;;;;;5049534;28;20663;-71
2023/08/31 02:31:41;;;;;;;5.40;3.50;;;13.10;99.90;;;;;;5049756;28;20486;-72
2023/08/31 02:34:07;;;;;;;3.70;3.30;;;13.10;99.90;;;;;;5048244;28;20197;-71
2023/08/31 02:36:32;;;;;;;4.73;4.00;;;13.10;99.90;;;;;;5047450;28;20448;-72
2023/08/31 02:38:58;;;;;;;3.80;3.40;;;13.00;99.90;;;;;;5049518;28;20275;-71
2023/08/31 02:41:24;;;;;;;4.33;3.50;;;13.00;99.90;;;;;;5049370;28;20260;-71
2023/08/31 02:43:53;;;;;;;6.93;4.53;;;13.00;99.90;;;;;;5049724;28;20178;-71
2023/08/31 02:46:18;;;;;;;4.30;3.90;;;13.00;99.90;;;;;;5047490;28;20644;-71
2023/08/31 02:48:44;;;;;;;4.47;3.57;;;13.00;99.90;;;;;;5047596;28;20527;-71
2023/08/31 02:51:10;;;;;;;8.13;4.80;;;13.00;99.90;;;;;;5049099;28;20257;-71
2023/08/31 02:53:36;;;;;;;8.80;5.07;;;13.00;99.90;;;;;;5049263;28;20213;-71
2023/08/31 02:56:02;;;;;;;3.80;3.50;;;13.00;99.90;;;;;;5048796;28;20676;-71
2023/08/31 02:58:28;;;;;;;5.00;4.50;;;13.00;99.90;;;;;;5046856;28;20228;-71
2023/08/31 03:00:54;;;;;;;5.43;4.40;;;13.00;99.90;;;;;;5048912;28;20869;-72
2023/08/31 03:03:20;;;;;;;6.57;4.40;;;13.00;99.90;;;;;;5048932;28;20493;-71
2023/08/31 03:05:45;;;;;;;4.90;4.40;;;12.90;99.90;;;;;;5047699;28;20177;-71
2023/08/31 03:08:11;;;;;;;5.93;4.50;;;12.90;99.90;;;;;;5048812;28;20717;-71
2023/08/31 03:10:39;;;;;;;7.03;4.27;;;12.90;99.90;;;;;;5049272;28;20462;-72
2023/08/31 03:13:05;;;;;;;6.33;4.63;;;12.80;99.90;;;;;;5048260;28;20647;-71
2023/08/31 03:15:34;;;;;;;6.30;5.00;;;12.80;99.90;;;;;;5047642;28;20416;-71
2023/08/31 03:18:00;;;;;;;5.20;4.70;;;12.80;99.90;;;;;;5048840;28;20724;-71
2023/08/31 03:20:25;;;;;;;6.10;4.83;;;12.90;99.90;;;;;;5049066;28;20408;-71
2023/08/31 03:22:51;;;;;;;7.67;5.23;;;12.90;99.90;;;;;;5048141;28;20444;-71
2023/08/31 03:25:17;;;;;;;9.33;6.43;;;12.90;99.90;;;;;;5031424;28;20170;-71
2023/08/31 03:27:42;;;;;;;7.67;6.10;;;12.90;99.90;;;;;;5047387;28;20178;-71
2023/08/31 03:30:08;;;;;;;8.03;5.83;;;13.00;99.90;;;;;;5049636;28;20193;-71
2023/08/31 03:32:34;;;;;;;7.90;6.50;;;13.00;99.90;;;;;;5049774;28;20182;-71
2023/08/31 03:35:03;;;;;;;7.10;6.13;;;12.90;99.90;;;;;;5049048;28;20475;-71
2023/08/31 03:37:29;;;;;;;9.33;6.70;;;13.00;99.90;;;;;;5049073;28;20197;-71
2023/08/31 03:39:55;;;;;;;11.77;7.13;;;12.90;99.90;;;;;;5049893;28;20432;-71
2023/08/31 03:42:21;;;;;;;8.97;7.80;;;12.90;99.90;;;;;;5049074;28;20292;-71
2023/08/31 03:44:47;;;;;;;8.30;7.43;;;12.90;99.90;;;;;;5050398;28;20499;-71
2023/08/31 03:47:12;;;;;;;8.53;7.70;;;12.90;99.90;;;;;;5047977;28;20182;-71
2023/08/31 03:49:38;;;;;;;8.73;7.90;;;12.90;99.90;;;;;;5050253;28;20205;-71
2023/08/31 03:52:04;;;;;;;7.60;6.90;;;12.90;99.90;;;;;;5064875;28;20180;-71
2023/08/31 03:54:29;;;;;;;9.43;7.50;;;12.90;99.90;;;;;;5061093;28;20185;-71
2023/08/31 03:56:55;;;;;;;8.47;7.67;;;13.00;99.90;;;;;;5054829;28;20506;-71
2023/08/31 03:59:21;;;;;;;7.23;6.43;;;13.00;99.90;;;;;;5049008;28;20196;-72
2023/08/31 04:01:46;;;;;;;8.30;7.50;;;13.00;99.90;;;;;;5048664;28;20181;-71
2023/08/31 04:04:12;;;;;;;8.37;7.17;;;13.00;99.90;;;;;;5047522;28;20178;-71
2023/08/31 04:06:38;;;;;;;9.57;8.67;;;13.00;99.90;;;;;;5047790;28;20193;-72
2023/08/31 04:09:04;;;;;;;8.90;8.20;;;13.00;99.90;;;;;;5048046;28;20263;-71
2023/08/31 04:11:30;;;;;;;13.50;9.80;;;12.90;99.90;;;;;;5046916;28;20232;-71
2023/08/31 04:13:55;;;;;;;9.30;8.40;;;12.90;99.90;;;;;;5048013;28;20420;-71
2023/08/31 04:16:21;;;;;;;11.40;9.90;;;12.90;99.90;;;;;;5046238;28;20265;-72
2023/08/31 04:18:51;;;;;;;10.67;9.57;;;12.90;99.90;;;;;;5048052;28;20201;-71
2023/08/31 04:21:20;;;;;;;14.63;10.20;;;12.90;99.90;;;;;;5048004;28;20650;-71
2023/08/31 04:23:45;;;;;;;11.13;9.80;;;13.00;99.90;;;;;;5046833;28;20443;-71
2023/08/31 04:26:12;;;;;;;11.53;9.50;;;13.00;99.90;;;;;;5047467;28;20452;-71
2023/08/31 04:28:39;;;;;;;13.63;9.93;;;13.00;99.90;;;;;;5047569;28;20713;-71
2023/08/31 04:31:07;;;;;;;11.47;10.37;;;13.00;99.90;;;;;;5047637;28;20440;-71
2023/08/31 04:33:37;;;;;;;12.13;10.43;;;13.00;99.90;;;;;;5047975;28;20509;-71
2023/08/31 04:36:04;;;;;;;10.73;9.73;;;12.90;99.90;;;;;;5048033;28;20896;-71
2023/08/31 04:38:31;;;;;;;11.50;9.80;;;12.90;99.90;;;;;;5047294;28;20432;-71
2023/08/31 04:41:00;;;;;;;10.87;9.80;;;12.90;99.90;;;;;;5047479;28;20420;-72
2023/08/31 04:43:26;;;;;;;9.77;8.53;;;12.90;99.90;;;;;;5047836;28;20404;-71
2023/08/31 04:45:53;;;;;;;10.80;9.70;;;12.90;99.90;;;;;;5061669;28;20461;-71
2023/08/31 04:48:18;;;;;;;10.10;8.97;;;12.80;99.90;;;;;;5044842;28;20432;-71
2023/08/31 04:50:44;;;;;;;10.07;9.00;;;12.90;99.90;;;;;;5048055;28;20435;-71
2023/08/31 04:53:10;;;;;;;10.67;8.67;;;12.80;99.90;;;;;;5047545;28;20659;-71
2023/08/31 04:55:35;;;;;;;10.67;9.30;;;12.80;99.90;;;;;;5047603;28;20182;-71
2023/08/31 04:58:01;;;;;;;10.10;9.03;;;12.70;99.90;;;;;;5046762;28;21053;-71
2023/08/31 05:00:27;;;;;;;13.10;9.20;;;12.70;99.90;;;;;;5045700;28;20261;-71
2023/08/31 05:02:52;;;;;;;11.60;9.10;;;12.80;99.90;;;;;;5047678;28;20181;-71
2023/08/31 05:05:18;;;;;;;11.10;9.30;;;12.80;99.90;;;;;;5047345;28;20184;-71
2023/08/31 05:07:44;;;;;;;9.23;8.33;;;12.80;99.90;;;;;;5047272;28;20177;-71
2023/08/31 05:10:10;;;;;;;10.07;9.00;;;12.90;99.90;;;;;;5047398;28;20201;-71
2023/08/31 05:12:36;;;;;;;10.10;9.10;;;12.80;99.90;;;;;;5046064;28;20181;-71
2023/08/31 05:15:02;;;;;;;11.00;8.97;;;12.70;99.90;;;;;;5047378;28;20765;-71
2023/08/31 05:17:28;;;;;;;12.33;10.50;;;12.70;99.90;;;;;;5046551;28;20794;-71
2023/08/31 05:19:54;;;;;;;11.80;10.13;;;12.80;99.90;;;;;;5062802;28;20444;-71
2023/08/31 05:22:19;;;;;;;11.43;10.23;;;12.80;99.90;;;;;;5047251;28;20192;-71
2023/08/31 05:24:45;;;;;;;11.30;10.20;;;12.70;99.90;;;;;;5047306;28;20182;-71
2023/08/31 05:27:11;;;;;;;10.97;9.77;;;12.80;99.90;;;;;;5045559;28;20222;-71
2023/08/31 05:29:36;;;;;;;11.67;9.93;;;12.70;99.90;;;;;;5046911;28;20213;-71
2023/08/31 05:32:02;;;;;;;16.00;11.27;;;12.80;99.90;;;;;;5047237;28;20193;-72
2023/08/31 05:34:28;;;;;;;12.80;11.50;;;12.80;99.90;;;;;;5046977;28;20188;-71
2023/08/31 05:36:54;;;;;;;14.27;10.93;;;12.90;99.90;;;;;;5046210;28;20232;-71
2023/08/31 05:39:19;;;;;;;12.93;11.00;;;12.80;99.90;;;;;;5046948;28;20521;-72
2023/08/31 05:41:45;;;;;;;11.93;10.77;;;12.90;99.90;;;;;;5046809;28;20181;-71
2023/08/31 05:44:11;;;;;;;14.00;11.40;;;12.90;99.90;;;;;;5047213;28;20185;-71
2023/08/31 05:46:38;;;;;;;12.50;11.20;;;13.00;99.90;;;;;;5045461;28;20178;-71
2023/08/31 05:49:04;;;;;;;13.73;11.10;;;12.90;99.90;;;;;;5046987;28;20716;-71
2023/08/31 05:51:29;;;;;;;12.13;10.70;;;13.00;99.90;;;;;;5045507;28;20444;-71
2023/08/31 05:53:55;;;;;;;12.50;11.20;;;13.00;99.90;;;;;;5046639;28;20185;-71
2023/08/31 05:56:21;;;;;;;11.90;10.70;;;13.10;99.90;;;;;;5046750;28;20201;-71
2023/08/31 05:58:47;;;;;;;14.70;11.67;;;13.20;99.90;;;;;;5050106;28;20269;-71
2023/08/31 06:01:13;;;;;;;11.83;10.73;;;13.20;99.90;;;;;;5049776;28;20178;-71
2023/08/31 06:03:38;;;;;;;12.43;10.40;;;13.40;99.90;;;;;;5050966;28;20507;-71
2023/08/31 06:06:04;;;;;;;13.13;10.37;;;13.50;99.90;;;;;;5048842;28;21064;-71
2023/08/31 06:08:30;;;;;;;11.00;9.93;;;13.70;99.90;;;;;;5049694;28;20198;-71
2023/08/31 06:10:56;;;;;;;11.53;10.33;;;13.60;99.90;;;;;;5050651;28;20685;-71
2023/08/31 06:13:22;;;;;;;12.60;11.40;;;13.70;99.90;;;;;;5050877;28;20557;-71
2023/08/31 06:15:47;;;;;;;11.30;10.23;;;13.90;99.90;;;;;;5050874;28;20504;-71
2023/08/31 06:18:13;;;;;;;11.03;10.00;;;14.00;99.90;;;;;;5049456;28;20671;-71
2023/08/31 06:20:39;;;;;;;11.43;9.33;;;14.20;99.90;;;;;;5051024;28;20411;-71
2023/08/31 06:23:05;;;;;;;11.80;10.60;;;14.20;99.90;;;;;;5050231;28;20412;-71
2023/08/31 06:25:31;;;;;;;11.23;10.10;;;14.30;99.90;;;;;;5049453;28;21356;-71
2023/08/31 06:27:57;;;;;;;9.40;8.50;;;14.40;99.90;;;;;;5048622;28;20244;-72
2023/08/31 06:30:23;;;;;;;9.67;8.77;;;14.30;99.90;;;;;;5050380;28;20452;-71
2023/08/31 06:32:50;;;;;;;10.63;9.60;;;14.40;99.90;;;;;;5050963;28;20936;-71
2023/08/31 06:35:17;;;;;;;11.30;8.33;;;14.40;99.90;;;;;;5050237;28;20251;-71
2023/08/31 06:37:43;;;;;;;10.07;9.07;;;14.50;99.90;;;;;;5050144;28;20459;-71
2023/08/31 06:40:10;;;;;;;8.30;7.50;;;14.60;99.90;;;;;;5050264;28;20209;-71
2023/08/31 06:42:39;;;;;;;11.30;7.90;;;14.70;99.90;;;;;;5050589;28;20808;-71
2023/08/31 06:45:06;;;;;;;9.13;8.30;;;14.90;99.90;;;;;;5050451;28;20425;-72
2023/08/31 06:47:33;;;;;;;7.40;6.70;;;15.00;99.90;;;;;;5049511;28;20413;-71
2023/08/31 06:49:59;;;;;;;8.17;7.40;;;15.20;99.90;;;;;;5050997;28;20812;-72
2023/08/31 06:52:26;;;;;;;8.20;7.13;;;15.30;99.90;;;;;;5059323;28;20424;-71
2023/08/31 06:54:56;;;;;;;7.43;6.73;;;15.20;99.90;;;;;;5061580;28;20416;-71
2023/08/31 06:57:25;;;;;;;8.57;7.40;;;15.20;99.90;;;;;;5060786;28;20474;-70
2023/08/31 06:59:51;;;;;;;7.37;6.40;;;15.30;99.90;;;;;;5051933;28;20443;-71
2023/08/31 07:02:18;;;;;;;11.73;6.37;;;15.30;99.90;;;;;;5050264;28;20412;-71
2023/08/31 07:04:44;;;;;;;6.97;6.30;;;15.30;99.90;;;;;;5050041;28;20165;-71
2023/08/31 07:07:10;;;;;;;6.57;5.93;;;15.50;99.90;;;;;;5049205;28;20427;-71
2023/08/31 07:09:36;;;;;;;6.07;5.47;;;15.40;99.90;;;;;;5049039;28;20432;-71
2023/08/31 07:12:02;;;;;;;6.03;5.53;;;15.50;99.90;;;;;;5048660;28;20428;-71
2023/08/31 07:14:28;;;;;;;6.20;5.70;;;15.50;99.90;;;;;;5049405;28;20182;-71
2023/08/31 07:16:53;;;;;;;5.50;5.00;;;15.50;99.90;;;;;;5049307;28;20209;-71
2023/08/31 07:19:19;;;;;;;5.13;4.60;;;15.50;99.90;;;;;;5049328;28;20199;-71
2023/08/31 07:21:46;;;;;;;4.83;4.33;;;15.40;99.90;;;;;;5049816;28;20208;-71
2023/08/31 07:24:13;;;;;;;4.17;3.80;;;15.40;99.90;;;;;;5049556;28;20583;-71
2023/08/31 07:26:38;;;;;;;6.50;4.20;;;15.50;99.90;;;;;;5047173;28;20416;-71
2023/08/31 07:29:04;;;;;;;5.10;3.70;;;15.50;99.90;;;;;;5049230;28;20440;-71
2023/08/31 07:31:31;;;;;;;4.37;3.60;;;15.60;99.90;;;;;;5048989;28;20229;-71
2023/08/31 07:33:57;;;;;;;4.00;3.53;;;15.60;99.90;;;;;;5049373;28;20177;-71
2023/08/31 07:36:23;;;;;;;5.93;3.50;;;15.70;99.90;;;;;;5048456;28;20460;-71
2023/08/31 07:38:48;;;;;;;6.00;3.90;;;15.80;99.90;;;;;;5048767;28;20436;-71
2023/08/31 07:41:14;;;;;;;4.17;3.20;;;15.90;99.90;;;;;;5049410;28;20584;-71
2023/08/31 07:43:40;;;;;;;3.70;3.00;;;15.80;99.90;;;;;;5047476;28;20177;-71
2023/08/31 07:46:05;;;;;;;4.10;3.13;;;15.70;99.90;;;;;;5048888;28;20639;-71
2023/08/31 07:48:31;;;;;;;4.07;3.37;;;15.80;99.90;;;;;;5046290;28;20255;-72
2023/08/31 07:50:57;;;;;;;4.40;3.43;;;15.70;99.90;;;;;;5048769;28;20202;-70
2023/08/31 07:53:22;;;;;;;3.73;3.30;;;15.80;99.90;;;;;;5048989;28;20185;-71
2023/08/31 07:55:56;;;;;;;3.40;2.23;;;15.70;99.90;;;;;;5048405;28;20723;-71
2023/08/31 07:58:22;;;;;;;7.00;3.40;;;15.80;99.90;;;;;;5048267;28;20205;-71
2023/08/31 08:00:49;;;;;;;6.10;3.33;;;15.70;99.90;;;;;;5047418;28;20841;-71
2023/08/31 08:03:14;;;;;;;4.70;3.03;;;15.70;99.90;;;;;;5049069;28;20507;-71
2023/08/31 08:05:41;;;;;;;3.40;2.67;;;15.80;99.90;;;;;;5048329;28;21171;-71
2023/08/31 08:08:07;;;;;;;5.40;3.47;;;15.80;99.90;;;;;;5048113;28;20250;-71
2023/08/31 08:10:33;;;;;;;2.90;2.53;;;15.80;99.90;;;;;;5048808;28;20432;-71
2023/08/31 08:12:58;;;;;;;4.50;2.70;;;15.80;99.90;;;;;;5048453;28;20992;-71
2023/08/31 08:15:25;;;;;;;2.57;2.37;;;15.80;99.90;;;;;;5048310;28;20400;-71
2023/08/31 08:17:51;;;;;;;3.20;2.47;;;15.90;99.90;;;;;;5047784;28;20209;-71
2023/08/31 08:20:16;;;;;;;3.00;2.07;;;15.80;99.90;;;;;;5048336;28;20433;-71
2023/08/31 08:22:42;;;;;;;3.20;2.93;;;15.90;99.90;;;;;;5048357;28;20174;-71
2023/08/31 08:25:08;;;;;;;4.57;3.40;;;16.00;99.90;;;;;;5046475;28;20174;-72
2023/08/31 08:27:34;;;;;;;5.03;3.10;;;16.00;99.90;;;;;;5047761;28;20323;-72
2023/08/31 08:30:00;;;;;;;3.27;2.40;;;16.10;99.90;;;;;;5048008;28;20428;-72
2023/08/31 08:32:26;;;;;;;5.10;3.03;;;16.20;99.90;;;;;;5048533;28;20789;-72
2023/08/31 08:34:51;;;;;;;3.40;2.70;;;16.10;99.90;;;;;;5047993;28;20193;-72
2023/08/31 08:37:18;;;;;;;7.43;3.00;;;16.10;99.90;;;;;;5047497;28;20820;-72
2023/08/31 08:39:48;;;;;;;4.57;2.63;;;16.20;99.90;;;;;;5048170;28;20193;-72
2023/08/31 08:42:17;;;;;;;3.93;2.90;;;16.30;99.90;;;;;;5048018;28;20499;-72
2023/08/31 08:44:44;;;;;;;2.67;2.10;;;16.20;99.90;;;;;;5047849;28;20412;-72
2023/08/31 08:47:11;;;;;;;4.00;2.83;;;16.20;99.90;;;;;;5044875;28;20412;-72
2023/08/31 08:49:38;;;;;;;6.00;3.23;;;16.30;99.90;;;;;;5047861;28;20436;-72
2023/08/31 08:52:04;;;;;;;4.83;2.50;;;16.30;99.90;;;;;;5047863;28;20408;-72
2023/08/31 08:54:30;;;;;;;4.57;2.60;;;16.30;99.90;;;;;;5047898;28;20462;-72
2023/08/31 08:56:57;;;;;;;4.97;3.27;;;16.40;99.90;;;;;;5047244;28;20475;-72
2023/08/31 08:59:23;;;;;;;4.50;2.73;;;16.50;99.90;;;;;;5047402;28;20617;-72
2023/08/31 09:01:49;;;;;;;6.93;2.63;;;16.60;99.90;;;;;;5047894;28;20424;-72
2023/08/31 09:04:15;;;;;;;5.67;3.40;;;16.70;99.90;;;;;;5047501;28;20420;-72
2023/08/31 09:06:41;;;;;;;5.40;3.13;;;16.70;99.90;;;;;;5046877;28;20193;-72
2023/08/31 09:09:09;;;;;;;6.07;3.97;;;16.80;99.90;;;;;;5047617;28;20792;-72
2023/08/31 09:11:35;;;;;;;4.23;2.87;;;16.80;99.90;;;;;;5048012;28;20178;-72
2023/08/31 09:14:19;;;;;;;3.43;2.53;;;16.80;99.90;;;;;;5047843;28;20490;-72
2023/08/31 09:16:50;;;;;;;5.80;2.30;;;16.90;99.90;;;;;;5045689;28;20506;-72
2023/08/31 09:19:28;;;;;;;4.50;2.93;;;17.00;99.90;;;;;;5047284;28;20509;-72
2023/08/31 09:21:56;;;;;;;3.40;3.10;;;17.10;99.90;;;;;;5047423;28;20400;-72
2023/08/31 09:24:23;;;;;;;5.87;3.40;;;17.10;99.90;;;;;;5047470;28;20433;-72
2023/08/31 09:26:58;;;;;;;5.20;2.87;;;17.10;99.90;;;;;;5046483;28;21122;-72
2023/08/31 09:29:24;;;;;;;3.17;2.10;;;17.20;99.90;;;;;;5047425;28;20435;-72
2023/08/31 09:31:50;;;;;;;2.77;2.30;;;17.30;99.90;;;;;;5046661;28;20438;-72
2023/08/31 09:34:17;;;;;;;5.77;3.27;;;17.50;99.90;;;;;;5047793;28;20417;-72
2023/08/31 09:36:43;;;;;;;6.67;2.90;;;17.60;99.90;;;;;;5046564;28;20447;-72
2023/08/31 09:39:10;;;;;;;2.40;2.20;;;17.70;99.90;;;;;;5047593;28;20429;-72
2023/08/31 09:41:51;;;;;;;9.03;3.43;;;17.80;99.90;;;;;;5047661;28;20454;-72
2023/08/31 09:44:19;;;;;;;3.37;2.40;;;17.80;99.90;;;;;;5047660;28;20515;-72
2023/08/31 09:46:45;;;;;;;4.80;2.57;;;17.80;99.90;;;;;;5045386;28;20405;-72
2023/08/31 09:49:13;;;;;;;4.23;2.77;;;18.00;99.90;;;;;;5047697;28;21043;-72
2023/08/31 09:51:43;;;;;;;3.67;2.67;;;18.10;99.90;;;;;;5046473;28;20448;-72
2023/08/31 09:54:12;;;;;;;3.47;2.77;;;18.10;99.90;;;;;;5060234;28;20412;-72
2023/08/31 09:56:41;;;;;;;2.90;2.67;;;18.20;99.90;;;;;;5056495;28;20452;-72
2023/08/31 09:59:08;;;;;;;4.90;3.70;;;18.30;99.90;;;;;;5056562;28;20425;-72
2023/08/31 10:01:34;;;;;;;3.83;2.73;;;18.40;99.90;;;;;;5048558;28;20408;-72
2023/08/31 10:04:00;;;;;;;5.53;2.77;;;18.30;99.90;;;;;;5047380;28;20499;-72
2023/08/31 10:06:27;;;;;;;2.93;2.50;;;18.30;99.90;;;;;;5046522;28;20408;-73
2023/08/31 10:08:53;;;;;;;2.93;2.40;;;18.30;99.90;;;;;;5046978;28;20444;-72
2023/08/31 10:11:21;;;;;;;3.87;2.30;;;18.30;99.90;;;;;;5047278;28;20992;-72
2023/08/31 10:13:48;;;;;;;2.50;2.20;;;18.30;99.90;;;;;;5046952;28;20448;-72
2023/08/31 10:16:15;;;;;;;3.70;2.27;;;18.20;99.90;;;;;;5046557;28;20512;-72
2023/08/31 10:18:41;;;;;;;2.90;2.30;;;18.10;99.90;;;;;;5046407;28;20496;-72
2023/08/31 10:21:07;;;;;;;2.47;1.80;;;18.10;99.90;;;;;;5046986;28;21020;-72
2023/08/31 10:23:35;;;;;;;3.23;2.13;;;18.20;99.90;;;;;;5047306;28;20408;-72
2023/08/31 10:26:03;;;;;;;3.03;2.17;;;18.30;99.90;;;;;;5046558;28;20416;-72
2023/08/31 10:28:29;;;;;;;2.47;1.80;;;18.30;99.90;;;;;;5046318;28;20444;-72
2023/08/31 10:31:15;;;;;;;2.03;1.83;;;18.50;99.90;;;;;;5046384;28;21149;-73
2023/08/31 10:33:44;;;;;;;4.63;1.73;;;18.80;99.90;;;;;;5045576;28;20820;-73
2023/08/31 10:36:15;;;;;;;3.60;1.90;;;18.80;99.90;;;;;;5047196;28;20408;-72
2023/08/31 10:38:44;;;;;;;3.80;1.70;;;18.90;99.90;;;;;;5046289;28;20428;-72
2023/08/31 10:41:10;;;;;;;2.50;1.50;;;19.10;99.90;;;;;;5046919;28;20447;-72
2023/08/31 10:43:49;;;;;;;4.20;1.50;;;19.20;99.90;;;;;;5046923;28;20432;-72
2023/08/31 10:46:16;;;;;;;2.83;2.17;;;19.30;99.90;;;;;;5049689;28;20173;-72
2023/08/31 10:48:56;;;;;;;2.40;2.20;;;19.40;99.90;;;;;;5047367;28;20795;-72
2023/08/31 10:51:23;;;;;;;2.30;1.70;;;19.60;99.90;;;;;;5050088;28;20416;-72
2023/08/31 10:53:49;;;;;;;3.47;2.00;;;19.60;99.90;;;;;;5049305;28;21073;-72
2023/08/31 10:56:18;;;;;;;4.03;1.70;;;19.50;99.90;;;;;;5049620;28;20420;-72
2023/08/31 10:59:00;;;;;;;2.00;1.60;;;19.60;99.90;;;;;;5049758;28;20485;-72
2023/08/31 11:01:51;;;;;;;4.50;1.77;;;19.70;99.90;;;;;;5047982;28;20426;-72
2023/08/31 11:04:16;;;;;;;5.63;2.63;;;19.80;99.90;;;;;;5048915;28;20409;-72
2023/08/31 11:06:42;;;;;;;3.23;1.87;;;19.90;99.90;;;;;;5048889;28;20435;-72
2023/08/31 11:09:19;;;;;;;3.27;1.73;;;20.00;99.90;;;;;;5049614;28;20198;-72
2023/08/31 11:11:45;;;;;;;2.63;1.93;;;20.00;99.90;;;;;;5049753;28;20177;-72
2023/08/31 11:14:10;;;;;;;2.70;2.07;;;20.00;99.90;;;;;;5050073;28;21312;-72
2023/08/31 11:16:38;;;;;;;3.07;1.90;;;19.80;99.90;;;;;;5048678;28;20459;-72
2023/08/31 11:19:04;;;;;;;4.63;2.00;;;19.90;99.90;;;;;;5049978;28;20247;-72
2023/08/31 11:21:33;;;;;;;3.00;2.00;;;19.90;99.90;;;;;;5049823;28;20825;-72
2023/08/31 11:23:59;;;;;;;3.00;1.93;;;20.00;99.90;;;;;;5049689;28;20173;-72
2023/08/31 11:26:31;;;;;;;2.50;2.30;;;20.10;99.90;;;;;;5048779;28;20419;-72
2023/08/31 11:28:57;;;;;;;4.47;2.13;;;20.20;99.90;;;;;;5049370;28;20445;-72
2023/08/31 11:31:24;;;;;;;4.10;2.30;;;20.30;99.90;;;;;;5047910;28;20428;-72
2023/08/31 11:33:49;;;;;;;3.83;2.27;;;20.40;99.90;;;;;;5049342;28;20541;-72
2023/08/31 11:36:17;;;;;;;5.93;2.03;;;20.50;99.90;;;;;;5049076;28;20425;-72
2023/08/31 11:38:44;;;;;;;2.87;2.20;;;20.60;99.90;;;;;;5048358;28;20198;-72
2023/08/31 11:41:09;;;;;;;3.20;1.90;;;20.60;99.90;;;;;;5049576;28;20408;-72
2023/08/31 11:43:37;;;;;;;4.27;1.80;;;20.50;99.90;;;;;;5049267;28;20415;-72
2023/08/31 11:46:04;;;;;;;2.40;2.13;;;20.30;99.90;;;;;;5048998;28;20634;-72
2023/08/31 11:48:31;;;;;;;3.30;2.53;;;20.20;99.90;;;;;;5047390;28;20440;-71
2023/08/31 11:50:57;;;;;;;2.93;2.03;;;20.10;99.90;;;;;;5047826;28;20420;-72
2023/08/31 11:53:23;;;;;;;4.27;2.33;;;19.90;99.90;;;;;;5049120;28;20458;-72
2023/08/31 11:55:51;;;;;;;3.40;2.53;;;19.80;99.90;;;;;;5048290;28;21099;-72
2023/08/31 11:58:16;;;;;;;6.07;2.30;;;19.80;99.90;;;;;;5046723;28;20525;-72
2023/08/31 12:00:43;;;;;;;4.57;2.40;;;19.60;99.90;;;;;;5048145;28;20416;-73
2023/08/31 12:03:09;;;;;;;4.03;2.40;;;19.50;99.90;;;;;;5048884;28;20178;-72
2023/08/31 12:05:48;;;;;;;2.60;2.03;;;19.40;99.90;;;;;;5047515;28;20461;-72
2023/08/31 12:08:15;;;;;;;4.20;1.83;;;19.30;99.90;;;;;;5048236;28;20420;-72
2023/08/31 12:10:42;;;;;;;2.67;2.17;;;19.30;99.90;;;;;;5047284;28;20413;-72
2023/08/31 12:13:12;;;;;;;5.30;1.90;;;19.50;99.90;;;;;;5048811;28;20467;-72
2023/08/31 12:15:38;;;;;;;4.00;1.93;;;19.70;99.90;;;;;;5048450;28;20412;-72
2023/08/31 12:18:08;;;;;;;2.60;1.63;;;19.70;99.90;;;;;;5046817;28;20802;-73
2023/08/31 12:20:40;;;;;;;3.73;1.93;;;19.70;99.90;;;;;;5048692;28;20493;-72
2023/08/31 12:23:09;;;;;;;4.87;2.20;;;19.60;99.90;;;;;;5048729;28;20830;-72
2023/08/31 12:25:35;;;;;;;2.40;2.17;;;19.50;99.90;;;;;;5048342;28;20447;-72
2023/08/31 12:28:01;;;;;;;3.30;1.70;;;19.30;99.90;;;;;;5046454;28;20452;-72
2023/08/31 12:30:27;;;;;;;2.90;1.90;;;19.20;99.90;;;;;;5048595;28;20214;-72
2023/08/31 12:32:53;;;;;;;5.70;2.03;;;19.10;99.90;;;;;;5048421;28;20413;-72
2023/08/31 12:35:18;;;;;;;3.80;2.10;;;19.20;99.90;;;;;;5048491;28;20206;-72
2023/08/31 12:37:44;;;;;;;3.00;2.00;;;19.20;99.90;;;;;;5047791;28;20220;-72
2023/08/31 12:40:10;;;;;;;4.80;2.47;;;19.10;99.90;;;;;;5048760;28;20288;-72
2023/08/31 12:42:36;;;;;;;3.50;2.23;;;19.10;99.90;;;;;;5048418;28;20182;-72
2023/08/31 12:45:05;;;;;;;3.30;2.40;;;19.20;99.90;;;;;;5048126;28;20477;-72